createdAt,value
2023-01-31T00:04:26.309Z,3.53
2023-01-31T00:09:31.125Z,3.57
2023-01-31T00:14:32.812Z,3.68
2023-01-31T00:19:37.269Z,3.70
2023-01-31T00:24:41.181Z,3.77
2023-01-31T00:29:43.021Z,3.81
2023-01-31T00:34:52.298Z,3.81
2023-01-31T00:39:56.411Z,3.78
2023-01-31T00:44:58.132Z,3.65
2023-01-31T00:50:04.612Z,3.49
2023-01-31T00:55:08.576Z,3.35
2023-01-31T01:00:13.610Z,3.25
2023-01-31T01:05:22.014Z,3.04
2023-01-31T01:10:24.041Z,2.88
2023-01-31T01:15:27.990Z,3.00
2023-01-31T01:20:32.317Z,3.23
2023-01-31T01:25:45.014Z,3.40
2023-01-31T01:30:49.907Z,3.53
2023-01-31T01:35:51.674Z,3.67
2023-01-31T01:40:57.937Z,3.74
2023-01-31T01:45:59.637Z,3.73
2023-01-31T01:51:07.734Z,3.75
2023-01-31T01:56:16.243Z,3.55
2023-01-31T02:01:18.323Z,3.35
2023-01-31T02:06:29.418Z,3.37
2023-01-31T02:11:31.799Z,3.50
2023-01-31T02:16:34.950Z,3.66
2023-01-31T02:22:08.216Z,3.77
2023-01-31T02:27:24.296Z,3.79
2023-01-31T02:32:46.959Z,3.72
2023-01-31T02:37:56.729Z,3.58
2023-01-31T02:43:15.339Z,3.55
2023-01-31T02:48:42.879Z,3.38
2023-01-31T02:54:03.164Z,3.44
2023-01-31T02:59:08.998Z,3.42
2023-01-31T03:04:12.974Z,3.21
2023-01-31T03:09:22.699Z,3.07
2023-01-31T03:14:27.601Z,3.10
2023-01-31T03:19:40.594Z,3.24
2023-01-31T03:24:48.169Z,3.29
2023-01-31T03:29:50.961Z,3.34
2023-01-31T03:34:53.387Z,3.38
2023-01-31T03:40:04.648Z,3.32
2023-01-31T03:45:13.291Z,3.25
2023-01-31T03:50:30.381Z,3.19
2023-01-31T03:55:42.261Z,3.15
2023-01-31T04:00:48.943Z,3.09
2023-01-31T04:05:50.914Z,3.04
2023-01-31T04:11:01.352Z,2.98
2023-01-31T04:16:08.486Z,2.93
2023-01-31T04:21:10.721Z,2.88
2023-01-31T04:26:12.542Z,2.88
2023-01-31T04:31:14.679Z,2.92
2023-01-31T04:36:16.464Z,2.97
2023-01-31T04:41:19.283Z,3.02
2023-01-31T04:46:23.105Z,3.11
2023-01-31T04:51:24.813Z,3.14
2023-01-31T04:56:28.781Z,3.17
2023-01-31T05:01:37.410Z,3.23
2023-01-31T05:06:41.693Z,3.27
2023-01-31T05:11:45.696Z,3.28
2023-01-31T05:16:52.040Z,3.25
2023-01-31T05:21:58.255Z,3.22
2023-01-31T05:27:03.526Z,3.22
2023-01-31T05:32:08.742Z,3.20
2023-01-31T05:37:12.912Z,3.25
2023-01-31T05:42:17.611Z,3.27
2023-01-31T05:47:19.318Z,3.31
2023-01-31T05:52:23.678Z,3.35
2023-01-31T05:57:25.421Z,3.37
2023-01-31T06:02:27.127Z,3.41
2023-01-31T06:07:28.894Z,3.42
2023-01-31T06:12:33.154Z,3.45
2023-01-31T06:17:35.142Z,3.55
2023-01-31T06:22:36.861Z,3.57
2023-01-31T06:27:40.920Z,3.58
2023-01-31T06:32:45.369Z,3.61
2023-01-31T06:37:49.405Z,3.68
2023-01-31T06:42:53.660Z,3.72
2023-01-31T06:47:57.525Z,3.76
2023-01-31T06:52:59.453Z,3.80
2023-01-31T06:58:05.367Z,3.86
2023-01-31T07:03:09.614Z,3.91
2023-01-31T07:08:11.311Z,3.95
2023-01-31T07:13:19.869Z,3.96
2023-01-31T07:18:21.568Z,4.00
2023-01-31T07:23:27.381Z,4.04
2023-01-31T07:28:32.271Z,4.13
2023-01-31T07:33:34.911Z,4.18
2023-01-31T07:38:36.555Z,4.22
2023-01-31T07:43:38.902Z,4.24
2023-01-31T07:48:43.211Z,4.29
2023-01-31T07:53:47.840Z,4.32
2023-01-31T07:58:50.645Z,4.34
2023-01-31T08:03:58.117Z,4.33
2023-01-31T08:09:01.808Z,4.36
2023-01-31T08:14:03.704Z,4.57
2023-01-31T08:19:06.016Z,4.46
2023-01-31T08:24:12.302Z,4.33
2023-01-31T08:29:14.789Z,4.22
2023-01-31T08:34:19.055Z,4.18
2023-01-31T08:39:22.936Z,4.18
2023-01-31T08:44:24.737Z,4.21
2023-01-31T08:49:36.346Z,4.31
2023-01-31T08:54:38.179Z,4.33
2023-01-31T08:59:39.990Z,4.39
2023-01-31T09:04:44.637Z,4.45
2023-01-31T09:09:51.392Z,4.57
2023-01-31T09:14:53.146Z,4.65
2023-01-31T09:19:54.861Z,4.72
2023-01-31T09:24:59.023Z,4.82
2023-01-31T09:30:04.314Z,4.88
2023-01-31T09:35:06.965Z,4.95
2023-01-31T09:40:22.777Z,4.99
2023-01-31T09:45:36.119Z,5.08
2023-01-31T09:50:51.110Z,5.14
2023-01-31T09:56:27.144Z,5.20
2023-01-31T10:01:47.923Z,5.28
2023-01-31T10:07:13.089Z,5.35
2023-01-31T10:12:22.928Z,5.44
2023-01-31T10:17:39.515Z,5.49
2023-01-31T10:23:04.385Z,5.55
2023-01-31T10:28:14.107Z,5.60
2023-01-31T10:33:34.461Z,5.67
2023-01-31T10:38:41.978Z,5.62
2023-01-31T10:43:54.260Z,5.50
2023-01-31T10:48:56.104Z,5.44
2023-01-31T10:54:05.389Z,5.41
2023-01-31T10:59:13.183Z,5.36
2023-01-31T11:04:31.100Z,5.39
2023-01-31T11:09:43.025Z,5.41
2023-01-31T11:14:46.133Z,5.43
2023-01-31T11:19:51.935Z,5.45
2023-01-31T11:24:57.329Z,5.49
2023-01-31T11:30:00.483Z,5.53
2023-01-31T11:35:11.427Z,5.56
2023-01-31T11:40:19.941Z,5.60
2023-01-31T11:45:24.319Z,5.58
2023-01-31T11:50:44.708Z,5.61
2023-01-31T11:55:48.275Z,5.62
2023-01-31T12:00:57.003Z,5.71
2023-01-31T12:06:04.655Z,5.86
2023-01-31T12:11:30.473Z,6.04
2023-01-31T12:16:36.768Z,6.27
2023-01-31T12:21:42.686Z,6.46
2023-01-31T12:26:54.087Z,6.60
2023-01-31T12:32:13.987Z,6.52
2023-01-31T12:37:20.789Z,6.59
2023-01-31T12:42:24.925Z,6.53
2023-01-31T12:47:39.240Z,6.52
2023-01-31T12:53:19.730Z,6.57
2023-01-31T12:58:29.235Z,6.56
2023-01-31T13:03:42.684Z,6.57
2023-01-31T13:09:07.398Z,6.62
2023-01-31T13:14:16.855Z,6.72
2023-01-31T13:19:25.183Z,6.76
2023-01-31T13:24:38.907Z,6.91
2023-01-31T13:30:31.043Z,7.10
2023-01-31T13:35:38.999Z,7.10
2023-01-31T13:40:54.829Z,7.15
2023-01-31T13:46:09.854Z,7.17
2023-01-31T13:51:18.107Z,7.19
2023-01-31T13:56:27.450Z,7.22
2023-01-31T14:01:35.129Z,7.31
2023-01-31T14:07:02.819Z,7.33
2023-01-31T14:12:17.775Z,7.41
2023-01-31T14:17:31.024Z,7.50
2023-01-31T14:22:35.604Z,7.54
2023-01-31T14:27:47.131Z,7.54
2023-01-31T14:32:57.179Z,7.49
2023-01-31T14:38:07.557Z,7.43
2023-01-31T14:43:09.203Z,7.34
2023-01-31T14:48:42.848Z,7.30
2023-01-31T14:53:55.084Z,7.30
2023-01-31T14:58:59.384Z,7.30
2023-01-31T15:04:04.336Z,7.16
2023-01-31T15:09:14.098Z,7.08
2023-01-31T15:14:34.676Z,6.93
2023-01-31T15:19:43.712Z,6.89
2023-01-31T15:24:50.638Z,6.73
2023-01-31T15:30:00.379Z,6.71
2023-01-31T15:35:13.335Z,6.57
2023-01-31T15:40:24.131Z,6.71
2023-01-31T15:45:30.555Z,6.72
2023-01-31T15:50:36.217Z,6.90
2023-01-31T15:55:40.318Z,7.13
2023-01-31T16:00:48.538Z,7.19
2023-01-31T16:05:52.996Z,6.91
2023-01-31T16:10:55.963Z,7.14
2023-01-31T16:15:57.932Z,6.85
2023-01-31T16:21:13.301Z,6.53
2023-01-31T16:26:24.148Z,6.53
2023-01-31T16:31:29.456Z,6.36
2023-01-31T16:36:33.999Z,6.37
2023-01-31T16:41:48.044Z,6.31
2023-01-31T16:46:50.742Z,6.32
2023-01-31T16:52:00.209Z,6.28
2023-01-31T16:57:07.907Z,6.21
2023-01-31T17:02:26.359Z,6.26
2023-01-31T17:07:31.658Z,6.24
2023-01-31T17:12:42.848Z,6.17
2023-01-31T17:17:49.249Z,6.24
2023-01-31T17:23:02.244Z,6.15
2023-01-31T17:28:06.042Z,6.09
2023-01-31T17:33:15.491Z,5.92
2023-01-31T17:38:17.232Z,5.74
2023-01-31T17:43:25.198Z,5.64
2023-01-31T17:48:28.610Z,5.53
2023-01-31T17:53:47.702Z,5.33
2023-01-31T17:58:51.987Z,5.28
2023-01-31T18:04:04.293Z,5.16
2023-01-31T18:09:10.249Z,5.10
2023-01-31T18:14:15.621Z,5.06
2023-01-31T18:19:22.137Z,5.07
2023-01-31T18:24:24.551Z,5.13
2023-01-31T18:29:26.492Z,5.08
2023-01-31T18:34:30.998Z,5.31
2023-01-31T18:39:33.740Z,5.18
2023-01-31T18:44:36.604Z,5.12
2023-01-31T18:49:40.378Z,5.08
2023-01-31T18:54:45.528Z,4.98
2023-01-31T18:59:47.305Z,4.86
2023-01-31T19:04:50.395Z,4.88
2023-01-31T19:09:53.119Z,4.98
2023-01-31T19:14:57.321Z,4.91
2023-01-31T19:20:02.114Z,4.95
2023-01-31T19:25:08.427Z,4.89
2023-01-31T19:30:10.912Z,4.80
2023-01-31T19:35:14.905Z,4.83
2023-01-31T19:40:16.909Z,4.84
2023-01-31T19:45:22.665Z,5.00
2023-01-31T19:50:24.677Z,5.05
2023-01-31T19:55:29.102Z,4.97
2023-01-31T20:00:31.143Z,4.89
2023-01-31T20:05:34.905Z,4.99
2023-01-31T20:10:37.482Z,5.08
2023-01-31T20:15:39.312Z,5.18
2023-01-31T20:20:44.790Z,5.16
2023-01-31T20:25:52.929Z,5.09
2023-01-31T20:31:06.112Z,5.06
2023-01-31T20:36:08.417Z,4.91
2023-01-31T20:41:11.280Z,4.86
2023-01-31T20:46:19.242Z,4.85
2023-01-31T20:51:21.058Z,4.75
2023-01-31T20:56:22.984Z,4.78
2023-01-31T21:01:27.606Z,4.84
2023-01-31T21:06:30.424Z,5.11
2023-01-31T21:11:32.243Z,5.11
2023-01-31T21:16:34.105Z,5.03
2023-01-31T21:21:35.896Z,4.91
2023-01-31T21:26:37.775Z,5.05
2023-01-31T21:31:39.600Z,5.03
2023-01-31T21:36:45.714Z,4.99
2023-01-31T21:42:06.167Z,4.97
2023-01-31T21:47:10.076Z,5.01
2023-01-31T21:52:14.164Z,4.82
2023-01-31T21:57:15.936Z,4.94
2023-01-31T22:02:20.665Z,4.89
2023-01-31T22:07:22.323Z,4.76
2023-01-31T22:12:24.121Z,4.51
2023-01-31T22:17:27.951Z,4.35
2023-01-31T22:22:33.830Z,4.46
2023-01-31T22:27:38.744Z,4.61
2023-01-31T22:32:42.809Z,4.82
2023-01-31T22:37:46.559Z,4.78
2023-01-31T22:42:49.282Z,4.77
2023-01-31T22:47:50.953Z,4.73
2023-01-31T22:52:52.865Z,4.80
2023-01-31T22:57:58.334Z,4.75
2023-01-31T23:03:02.273Z,4.77
2023-01-31T23:08:06.485Z,4.69
2023-01-31T23:13:08.886Z,4.56
2023-01-31T23:18:17.230Z,4.51
2023-01-31T23:23:21.401Z,4.57
2023-01-31T23:28:23.107Z,4.69
2023-01-31T23:33:26.000Z,4.81
2023-01-31T23:38:31.818Z,4.88
2023-01-31T23:43:35.903Z,4.95
2023-01-31T23:48:41.792Z,5.05
2023-01-31T23:53:46.351Z,5.07
2023-01-31T23:58:49.129Z,5.13
